sensor_id;sensor_type;location;lat;lon;timestamp;P1;durP1;ratioP1;P2;durP2;ratioP2
15889;SDS011;8043;49.388;12.128;2023-04-09T00:02:21;9.23;;;4.37;;
15889;SDS011;8043;49.388;12.128;2023-04-09T00:07:24;9.63;;;4.47;;
15889;SDS011;8043;49.388;12.128;2023-04-09T00:12:32;8.73;;;4.20;;
15889;SDS011;8043;49.388;12.128;2023-04-09T00:17:35;8.73;;;4.83;;
15889;SDS011;8043;49.388;12.128;2023-04-09T00:22:38;7.83;;;4.40;;
15889;SDS011;8043;49.388;12.128;2023-04-09T00:27:41;9.93;;;4.20;;
15889;SDS011;8043;49.388;12.128;2023-04-09T00:32:43;7.00;;;3.63;;
15889;SDS011;8043;49.388;12.128;2023-04-09T00:37:46;11.83;;;4.50;;
15889;SDS011;8043;49.388;12.128;2023-04-09T00:42:48;7.27;;;4.27;;
15889;SDS011;8043;49.388;12.128;2023-04-09T00:47:51;8.63;;;4.37;;
15889;SDS011;8043;49.388;12.128;2023-04-09T00:52:54;6.03;;;3.77;;
15889;SDS011;8043;49.388;12.128;2023-04-09T00:57:56;9.43;;;4.67;;
15889;SDS011;8043;49.388;12.128;2023-04-09T01:02:58;9.53;;;3.93;;
15889;SDS011;8043;49.388;12.128;2023-04-09T01:08:11;10.23;;;4.73;;
15889;SDS011;8043;49.388;12.128;2023-04-09T01:13:25;8.27;;;4.57;;
15889;SDS011;8043;49.388;12.128;2023-04-09T01:29:17;12.55;;;6.28;;
15889;SDS011;8043;49.388;12.128;2023-04-09T01:34:21;9.83;;;4.50;;
15889;SDS011;8043;49.388;12.128;2023-04-09T01:39:24;6.17;;;3.70;;
15889;SDS011;8043;49.388;12.128;2023-04-09T01:44:27;9.73;;;4.93;;
15889;SDS011;8043;49.388;12.128;2023-04-09T01:49:30;6.90;;;4.03;;
15889;SDS011;8043;49.388;12.128;2023-04-09T01:54:34;4.72;;;3.05;;
15889;SDS011;8043;49.388;12.128;2023-04-09T01:59:37;10.60;;;4.07;;
15889;SDS011;8043;49.388;12.128;2023-04-09T02:04:39;5.10;;;3.37;;
15889;SDS011;8043;49.388;12.128;2023-04-09T02:09:45;10.30;;;3.77;;
15889;SDS011;8043;49.388;12.128;2023-04-09T02:14:50;7.20;;;4.33;;
15889;SDS011;8043;49.388;12.128;2023-04-09T02:19:52;9.73;;;3.73;;
15889;SDS011;8043;49.388;12.128;2023-04-09T02:24:54;7.17;;;4.03;;
15889;SDS011;8043;49.388;12.128;2023-04-09T02:29:57;8.43;;;4.53;;
15889;SDS011;8043;49.388;12.128;2023-04-09T02:34:59;8.30;;;4.47;;
15889;SDS011;8043;49.388;12.128;2023-04-09T02:40:02;6.07;;;3.10;;
15889;SDS011;8043;49.388;12.128;2023-04-09T02:45:04;7.05;;;3.98;;
15889;SDS011;8043;49.388;12.128;2023-04-09T02:50:07;8.23;;;3.40;;
15889;SDS011;8043;49.388;12.128;2023-04-09T02:55:10;7.67;;;4.03;;
15889;SDS011;8043;49.388;12.128;2023-04-09T03:00:12;7.17;;;3.90;;
15889;SDS011;8043;49.388;12.128;2023-04-09T03:05:14;7.83;;;3.57;;
15889;SDS011;8043;49.388;12.128;2023-04-09T03:10:17;8.07;;;4.17;;
15889;SDS011;8043;49.388;12.128;2023-04-09T03:15:19;6.33;;;4.17;;
15889;SDS011;8043;49.388;12.128;2023-04-09T03:20:21;8.53;;;4.20;;
15889;SDS011;8043;49.388;12.128;2023-04-09T03:25:23;9.53;;;3.30;;
15889;SDS011;8043;49.388;12.128;2023-04-09T03:30:26;7.70;;;3.60;;
15889;SDS011;8043;49.388;12.128;2023-04-09T03:35:28;7.90;;;4.73;;
15889;SDS011;8043;49.388;12.128;2023-04-09T03:40:31;6.37;;;3.33;;
15889;SDS011;8043;49.388;12.128;2023-04-09T03:45:33;8.20;;;4.60;;
15889;SDS011;8043;49.388;12.128;2023-04-09T03:50:39;11.53;;;4.70;;
15889;SDS011;8043;49.388;12.128;2023-04-09T03:55:41;10.43;;;4.80;;
15889;SDS011;8043;49.388;12.128;2023-04-09T04:00:43;7.80;;;4.33;;
15889;SDS011;8043;49.388;12.128;2023-04-09T04:05:46;6.67;;;4.73;;
15889;SDS011;8043;49.388;12.128;2023-04-09T04:10:50;9.77;;;5.23;;
15889;SDS011;8043;49.388;12.128;2023-04-09T04:15:55;11.00;;;4.43;;
15889;SDS011;8043;49.388;12.128;2023-04-09T04:21:00;9.60;;;4.37;;
15889;SDS011;8043;49.388;12.128;2023-04-09T04:26:05;7.73;;;3.87;;
15889;SDS011;8043;49.388;12.128;2023-04-09T04:31:13;9.13;;;4.70;;
15889;SDS011;8043;49.388;12.128;2023-04-09T04:36:17;7.97;;;3.93;;
15889;SDS011;8043;49.388;12.128;2023-04-09T04:41:19;10.43;;;4.57;;
15889;SDS011;8043;49.388;12.128;2023-04-09T04:46:22;8.50;;;4.20;;
15889;SDS011;8043;49.388;12.128;2023-04-09T04:51:24;6.90;;;3.60;;
15889;SDS011;8043;49.388;12.128;2023-04-09T04:56:27;14.37;;;5.67;;
15889;SDS011;8043;49.388;12.128;2023-04-09T05:01:29;9.03;;;4.87;;
15889;SDS011;8043;49.388;12.128;2023-04-09T05:06:31;11.03;;;5.03;;
15889;SDS011;8043;49.388;12.128;2023-04-09T05:11:33;10.37;;;5.17;;
15889;SDS011;8043;49.388;12.128;2023-04-09T05:16:36;8.80;;;4.47;;
15889;SDS011;8043;49.388;12.128;2023-04-09T05:21:41;9.23;;;4.67;;
15889;SDS011;8043;49.388;12.128;2023-04-09T05:26:43;10.43;;;5.47;;
15889;SDS011;8043;49.388;12.128;2023-04-09T05:31:46;15.37;;;5.70;;
15889;SDS011;8043;49.388;12.128;2023-04-09T05:36:48;10.67;;;5.77;;
15889;SDS011;8043;49.388;12.128;2023-04-09T05:41:50;10.37;;;6.13;;
15889;SDS011;8043;49.388;12.128;2023-04-09T05:46:53;15.03;;;7.00;;
15889;SDS011;8043;49.388;12.128;2023-04-09T05:51:55;10.03;;;6.03;;
15889;SDS011;8043;49.388;12.128;2023-04-09T05:56:57;17.70;;;6.73;;
15889;SDS011;8043;49.388;12.128;2023-04-09T06:01:59;16.70;;;6.37;;
15889;SDS011;8043;49.388;12.128;2023-04-09T06:07:02;14.67;;;5.80;;
15889;SDS011;8043;49.388;12.128;2023-04-09T06:12:04;13.97;;;7.07;;
15889;SDS011;8043;49.388;12.128;2023-04-09T06:17:06;12.00;;;6.53;;
15889;SDS011;8043;49.388;12.128;2023-04-09T06:22:08;14.27;;;7.53;;
15889;SDS011;8043;49.388;12.128;2023-04-09T06:27:11;17.60;;;8.07;;
15889;SDS011;8043;49.388;12.128;2023-04-09T06:32:13;14.67;;;7.33;;
15889;SDS011;8043;49.388;12.128;2023-04-09T06:37:15;18.90;;;7.30;;
15889;SDS011;8043;49.388;12.128;2023-04-09T06:42:18;15.37;;;7.97;;
15889;SDS011;8043;49.388;12.128;2023-04-09T06:47:20;13.83;;;6.80;;
15889;SDS011;8043;49.388;12.128;2023-04-09T06:52:23;14.73;;;7.10;;
15889;SDS011;8043;49.388;12.128;2023-04-09T06:57:25;15.17;;;7.73;;
15889;SDS011;8043;49.388;12.128;2023-04-09T07:02:27;19.77;;;8.00;;
15889;SDS011;8043;49.388;12.128;2023-04-09T07:07:29;19.92;;;8.60;;
15889;SDS011;8043;49.388;12.128;2023-04-09T07:12:32;17.10;;;8.37;;
15889;SDS011;8043;49.388;12.128;2023-04-09T07:17:37;21.37;;;8.13;;
15889;SDS011;8043;49.388;12.128;2023-04-09T07:22:39;18.40;;;8.23;;
15889;SDS011;8043;49.388;12.128;2023-04-09T07:27:42;16.43;;;7.83;;
15889;SDS011;8043;49.388;12.128;2023-04-09T07:32:44;18.27;;;8.77;;
15889;SDS011;8043;49.388;12.128;2023-04-09T07:37:46;20.40;;;8.83;;
15889;SDS011;8043;49.388;12.128;2023-04-09T07:42:48;20.83;;;8.57;;
15889;SDS011;8043;49.388;12.128;2023-04-09T07:47:51;21.30;;;8.50;;
15889;SDS011;8043;49.388;12.128;2023-04-09T07:52:53;20.20;;;8.40;;
15889;SDS011;8043;49.388;12.128;2023-04-09T07:57:55;19.15;;;8.68;;
15889;SDS011;8043;49.388;12.128;2023-04-09T08:02:58;15.07;;;7.97;;
15889;SDS011;8043;49.388;12.128;2023-04-09T08:08:01;22.27;;;9.60;;
15889;SDS011;8043;49.388;12.128;2023-04-09T08:13:03;20.10;;;8.93;;
15889;SDS011;8043;49.388;12.128;2023-04-09T08:18:06;16.30;;;7.60;;
15889;SDS011;8043;49.388;12.128;2023-04-09T08:23:08;21.30;;;9.00;;
15889;SDS011;8043;49.388;12.128;2023-04-09T08:28:11;16.57;;;8.80;;
15889;SDS011;8043;49.388;12.128;2023-04-09T08:33:13;18.90;;;8.00;;
15889;SDS011;8043;49.388;12.128;2023-04-09T08:38:20;16.17;;;8.23;;
15889;SDS011;8043;49.388;12.128;2023-04-09T08:43:22;19.50;;;8.43;;
15889;SDS011;8043;49.388;12.128;2023-04-09T08:48:25;17.97;;;9.47;;
15889;SDS011;8043;49.388;12.128;2023-04-09T08:53:28;18.73;;;8.40;;
15889;SDS011;8043;49.388;12.128;2023-04-09T08:58:31;17.20;;;7.83;;
15889;SDS011;8043;49.388;12.128;2023-04-09T09:03:34;20.17;;;8.57;;
15889;SDS011;8043;49.388;12.128;2023-04-09T09:08:39;18.93;;;8.57;;
15889;SDS011;8043;49.388;12.128;2023-04-09T09:13:41;16.57;;;8.87;;
15889;SDS011;8043;49.388;12.128;2023-04-09T09:18:44;20.37;;;9.93;;
15889;SDS011;8043;49.388;12.128;2023-04-09T09:23:46;17.40;;;8.13;;
15889;SDS011;8043;49.388;12.128;2023-04-09T09:28:50;17.10;;;8.03;;
15889;SDS011;8043;49.388;12.128;2023-04-09T09:33:52;17.70;;;8.40;;
15889;SDS011;8043;49.388;12.128;2023-04-09T09:38:55;17.10;;;8.23;;
15889;SDS011;8043;49.388;12.128;2023-04-09T09:43:58;15.03;;;7.13;;
15889;SDS011;8043;49.388;12.128;2023-04-09T09:49:00;18.10;;;7.97;;
15889;SDS011;8043;49.388;12.128;2023-04-09T09:54:03;17.07;;;7.50;;
15889;SDS011;8043;49.388;12.128;2023-04-09T09:59:20;12.83;;;6.13;;
15889;SDS011;8043;49.388;12.128;2023-04-09T10:04:23;13.03;;;6.70;;
15889;SDS011;8043;49.388;12.128;2023-04-09T10:09:29;14.03;;;6.27;;
15889;SDS011;8043;49.388;12.128;2023-04-09T10:14:32;14.90;;;6.37;;
15889;SDS011;8043;49.388;12.128;2023-04-09T10:19:41;15.40;;;6.33;;
15889;SDS011;8043;49.388;12.128;2023-04-09T10:24:41;11.53;;;5.70;;
15889;SDS011;8043;49.388;12.128;2023-04-09T10:29:47;11.43;;;6.87;;
15889;SDS011;8043;49.388;12.128;2023-04-09T10:34:51;18.43;;;7.17;;
15889;SDS011;8043;49.388;12.128;2023-04-09T10:40:02;12.17;;;6.10;;
15889;SDS011;8043;49.388;12.128;2023-04-09T10:45:05;14.77;;;6.50;;
15889;SDS011;8043;49.388;12.128;2023-04-09T10:50:15;12.10;;;5.73;;
15889;SDS011;8043;49.388;12.128;2023-04-09T10:55:38;10.77;;;5.50;;
15889;SDS011;8043;49.388;12.128;2023-04-09T11:00:41;9.63;;;5.43;;
15889;SDS011;8043;49.388;12.128;2023-04-09T11:05:53;10.53;;;5.43;;
15889;SDS011;8043;49.388;12.128;2023-04-09T11:11:09;11.13;;;5.47;;
15889;SDS011;8043;49.388;12.128;2023-04-09T11:16:11;11.60;;;5.53;;
15889;SDS011;8043;49.388;12.128;2023-04-09T11:21:16;12.90;;;6.40;;
15889;SDS011;8043;49.388;12.128;2023-04-09T11:26:34;11.33;;;6.43;;
15889;SDS011;8043;49.388;12.128;2023-04-09T11:31:36;12.13;;;5.90;;
15889;SDS011;8043;49.388;12.128;2023-04-09T11:36:39;12.57;;;6.60;;
15889;SDS011;8043;49.388;12.128;2023-04-09T11:41:41;12.27;;;6.00;;
15889;SDS011;8043;49.388;12.128;2023-04-09T11:46:44;11.03;;;5.10;;
15889;SDS011;8043;49.388;12.128;2023-04-09T11:51:48;12.00;;;6.43;;
15889;SDS011;8043;49.388;12.128;2023-04-09T11:56:52;12.33;;;6.87;;
15889;SDS011;8043;49.388;12.128;2023-04-09T12:01:58;10.53;;;5.80;;
15889;SDS011;8043;49.388;12.128;2023-04-09T12:07:01;14.23;;;7.60;;
15889;SDS011;8043;49.388;12.128;2023-04-09T12:12:06;11.67;;;6.50;;
15889;SDS011;8043;49.388;12.128;2023-04-09T12:17:08;14.23;;;6.43;;
15889;SDS011;8043;49.388;12.128;2023-04-09T12:22:10;12.97;;;6.37;;
15889;SDS011;8043;49.388;12.128;2023-04-09T12:27:12;15.40;;;7.23;;
15889;SDS011;8043;49.388;12.128;2023-04-09T12:32:15;10.57;;;5.67;;
15889;SDS011;8043;49.388;12.128;2023-04-09T12:37:17;11.80;;;6.17;;
15889;SDS011;8043;49.388;12.128;2023-04-09T12:42:19;12.13;;;6.23;;
15889;SDS011;8043;49.388;12.128;2023-04-09T12:47:22;11.27;;;6.23;;
15889;SDS011;8043;49.388;12.128;2023-04-09T12:52:24;13.47;;;6.70;;
15889;SDS011;8043;49.388;12.128;2023-04-09T12:57:27;14.10;;;7.67;;
15889;SDS011;8043;49.388;12.128;2023-04-09T13:02:29;12.70;;;6.33;;
15889;SDS011;8043;49.388;12.128;2023-04-09T13:07:32;10.93;;;6.23;;
15889;SDS011;8043;49.388;12.128;2023-04-09T13:12:34;14.00;;;6.40;;
15889;SDS011;8043;49.388;12.128;2023-04-09T13:17:36;13.93;;;6.87;;
15889;SDS011;8043;49.388;12.128;2023-04-09T13:22:38;10.87;;;6.97;;
15889;SDS011;8043;49.388;12.128;2023-04-09T13:27:40;11.60;;;5.13;;
15889;SDS011;8043;49.388;12.128;2023-04-09T13:32:43;11.60;;;5.63;;
15889;SDS011;8043;49.388;12.128;2023-04-09T13:37:45;9.27;;;5.30;;
15889;SDS011;8043;49.388;12.128;2023-04-09T13:42:47;8.57;;;5.10;;
15889;SDS011;8043;49.388;12.128;2023-04-09T13:47:49;9.63;;;6.13;;
15889;SDS011;8043;49.388;12.128;2023-04-09T13:52:52;10.60;;;5.83;;
15889;SDS011;8043;49.388;12.128;2023-04-09T13:57:54;8.90;;;4.77;;
15889;SDS011;8043;49.388;12.128;2023-04-09T14:02:56;9.13;;;4.77;;
15889;SDS011;8043;49.388;12.128;2023-04-09T14:07:58;10.00;;;5.17;;
15889;SDS011;8043;49.388;12.128;2023-04-09T14:13:01;10.87;;;4.97;;
15889;SDS011;8043;49.388;12.128;2023-04-09T14:18:05;9.80;;;5.43;;
15889;SDS011;8043;49.388;12.128;2023-04-09T14:23:07;12.37;;;6.27;;
15889;SDS011;8043;49.388;12.128;2023-04-09T14:28:09;13.43;;;6.80;;
15889;SDS011;8043;49.388;12.128;2023-04-09T14:33:11;11.77;;;6.40;;
15889;SDS011;8043;49.388;12.128;2023-04-09T14:38:13;11.30;;;6.50;;
15889;SDS011;8043;49.388;12.128;2023-04-09T14:43:17;12.57;;;6.13;;
15889;SDS011;8043;49.388;12.128;2023-04-09T14:48:19;12.43;;;6.17;;
15889;SDS011;8043;49.388;12.128;2023-04-09T14:53:21;12.63;;;7.27;;
15889;SDS011;8043;49.388;12.128;2023-04-09T14:58:23;13.53;;;6.63;;
15889;SDS011;8043;49.388;12.128;2023-04-09T15:03:25;10.07;;;5.07;;
15889;SDS011;8043;49.388;12.128;2023-04-09T15:08:28;12.07;;;6.10;;
15889;SDS011;8043;49.388;12.128;2023-04-09T15:13:30;13.13;;;6.03;;
15889;SDS011;8043;49.388;12.128;2023-04-09T15:18:35;11.10;;;6.20;;
15889;SDS011;8043;49.388;12.128;2023-04-09T15:23:37;11.67;;;5.80;;
15889;SDS011;8043;49.388;12.128;2023-04-09T15:28:39;10.77;;;5.73;;
15889;SDS011;8043;49.388;12.128;2023-04-09T15:33:42;10.77;;;5.57;;
15889;SDS011;8043;49.388;12.128;2023-04-09T15:38:44;11.27;;;5.33;;
15889;SDS011;8043;49.388;12.128;2023-04-09T15:43:47;11.27;;;6.00;;
15889;SDS011;8043;49.388;12.128;2023-04-09T15:48:49;9.30;;;5.50;;
15889;SDS011;8043;49.388;12.128;2023-04-09T15:53:51;16.33;;;8.07;;
15889;SDS011;8043;49.388;12.128;2023-04-09T15:58:53;13.00;;;6.27;;
15889;SDS011;8043;49.388;12.128;2023-04-09T16:03:56;10.40;;;5.83;;
15889;SDS011;8043;49.388;12.128;2023-04-09T16:08:58;13.37;;;6.37;;
15889;SDS011;8043;49.388;12.128;2023-04-09T16:14:00;12.07;;;7.10;;
15889;SDS011;8043;49.388;12.128;2023-04-09T16:19:03;16.13;;;6.90;;
15889;SDS011;8043;49.388;12.128;2023-04-09T16:24:05;11.93;;;6.73;;
15889;SDS011;8043;49.388;12.128;2023-04-09T16:29:08;13.60;;;7.03;;
15889;SDS011;8043;49.388;12.128;2023-04-09T16:34:10;12.73;;;6.50;;
15889;SDS011;8043;49.388;12.128;2023-04-09T16:39:12;11.43;;;6.07;;
15889;SDS011;8043;49.388;12.128;2023-04-09T16:44:15;13.00;;;7.70;;
15889;SDS011;8043;49.388;12.128;2023-04-09T16:49:17;15.80;;;6.53;;
15889;SDS011;8043;49.388;12.128;2023-04-09T16:54:19;12.47;;;6.63;;
15889;SDS011;8043;49.388;12.128;2023-04-09T16:59:22;15.17;;;9.20;;
15889;SDS011;8043;49.388;12.128;2023-04-09T17:04:24;13.50;;;7.00;;
15889;SDS011;8043;49.388;12.128;2023-04-09T17:09:27;15.03;;;8.03;;
15889;SDS011;8043;49.388;12.128;2023-04-09T17:14:31;14.70;;;7.73;;
15889;SDS011;8043;49.388;12.128;2023-04-09T17:19:34;14.40;;;8.17;;
15889;SDS011;8043;49.388;12.128;2023-04-09T17:24:36;15.37;;;8.40;;
15889;SDS011;8043;49.388;12.128;2023-04-09T17:29:38;15.10;;;7.57;;
15889;SDS011;8043;49.388;12.128;2023-04-09T17:34:41;18.13;;;8.90;;
15889;SDS011;8043;49.388;12.128;2023-04-09T17:39:43;13.37;;;7.67;;
15889;SDS011;8043;49.388;12.128;2023-04-09T17:44:45;17.67;;;7.50;;
15889;SDS011;8043;49.388;12.128;2023-04-09T17:49:48;17.47;;;8.47;;
15889;SDS011;8043;49.388;12.128;2023-04-09T17:54:51;17.00;;;7.17;;
15889;SDS011;8043;49.388;12.128;2023-04-09T17:59:53;14.70;;;7.40;;
15889;SDS011;8043;49.388;12.128;2023-04-09T18:04:57;14.70;;;6.87;;
15889;SDS011;8043;49.388;12.128;2023-04-09T18:10:00;13.17;;;6.90;;
15889;SDS011;8043;49.388;12.128;2023-04-09T18:15:03;11.77;;;6.90;;
15889;SDS011;8043;49.388;12.128;2023-04-09T18:20:06;14.40;;;6.50;;
15889;SDS011;8043;49.388;12.128;2023-04-09T18:25:09;15.53;;;7.90;;
15889;SDS011;8043;49.388;12.128;2023-04-09T18:30:11;18.70;;;7.87;;
15889;SDS011;8043;49.388;12.128;2023-04-09T18:35:14;13.53;;;7.23;;
15889;SDS011;8043;49.388;12.128;2023-04-09T18:40:16;15.63;;;7.70;;
15889;SDS011;8043;49.388;12.128;2023-04-09T18:45:19;15.37;;;7.20;;
15889;SDS011;8043;49.388;12.128;2023-04-09T18:50:22;15.17;;;8.47;;
15889;SDS011;8043;49.388;12.128;2023-04-09T18:55:24;15.20;;;6.90;;
15889;SDS011;8043;49.388;12.128;2023-04-09T19:00:27;16.77;;;7.27;;
15889;SDS011;8043;49.388;12.128;2023-04-09T19:05:29;12.88;;;6.40;;
15889;SDS011;8043;49.388;12.128;2023-04-09T19:10:32;14.18;;;7.25;;
15889;SDS011;8043;49.388;12.128;2023-04-09T19:15:35;13.63;;;7.30;;
15889;SDS011;8043;49.388;12.128;2023-04-09T19:20:37;21.27;;;9.73;;
15889;SDS011;8043;49.388;12.128;2023-04-09T19:25:40;29.07;;;12.77;;
15889;SDS011;8043;49.388;12.128;2023-04-09T19:30:42;37.90;;;15.03;;
15889;SDS011;8043;49.388;12.128;2023-04-09T19:35:46;21.07;;;9.60;;
15889;SDS011;8043;49.388;12.128;2023-04-09T19:40:49;24.93;;;10.17;;
15889;SDS011;8043;49.388;12.128;2023-04-09T19:45:52;15.80;;;7.43;;
15889;SDS011;8043;49.388;12.128;2023-04-09T19:50:55;17.93;;;8.73;;
15889;SDS011;8043;49.388;12.128;2023-04-09T19:55:58;13.67;;;7.70;;
15889;SDS011;8043;49.388;12.128;2023-04-09T20:01:00;15.20;;;7.87;;
15889;SDS011;8043;49.388;12.128;2023-04-09T20:06:08;17.03;;;7.90;;
15889;SDS011;8043;49.388;12.128;2023-04-09T20:11:14;14.87;;;8.27;;
15889;SDS011;8043;49.388;12.128;2023-04-09T20:16:20;13.70;;;6.70;;
15889;SDS011;8043;49.388;12.128;2023-04-09T20:21:22;15.23;;;6.83;;
15889;SDS011;8043;49.388;12.128;2023-04-09T20:26:25;14.15;;;7.00;;
15889;SDS011;8043;49.388;12.128;2023-04-09T20:31:28;16.07;;;7.30;;
15889;SDS011;8043;49.388;12.128;2023-04-09T20:36:31;15.07;;;7.60;;
15889;SDS011;8043;49.388;12.128;2023-04-09T20:41:33;14.63;;;7.23;;
15889;SDS011;8043;49.388;12.128;2023-04-09T20:46:35;14.33;;;7.33;;
15889;SDS011;8043;49.388;12.128;2023-04-09T20:51:38;14.33;;;8.13;;
15889;SDS011;8043;49.388;12.128;2023-04-09T20:56:40;16.80;;;8.20;;
15889;SDS011;8043;49.388;12.128;2023-04-09T21:01:43;13.40;;;6.33;;
15889;SDS011;8043;49.388;12.128;2023-04-09T21:06:45;12.80;;;6.77;;
15889;SDS011;8043;49.388;12.128;2023-04-09T21:11:49;12.57;;;6.27;;
15889;SDS011;8043;49.388;12.128;2023-04-09T21:16:52;11.27;;;5.80;;
15889;SDS011;8043;49.388;12.128;2023-04-09T21:21:55;14.47;;;6.80;;
15889;SDS011;8043;49.388;12.128;2023-04-09T21:26:57;12.97;;;5.40;;
15889;SDS011;8043;49.388;12.128;2023-04-09T21:32:01;11.20;;;5.62;;
15889;SDS011;8043;49.388;12.128;2023-04-09T21:37:04;11.07;;;5.87;;
15889;SDS011;8043;49.388;12.128;2023-04-09T21:42:07;14.00;;;6.07;;
15889;SDS011;8043;49.388;12.128;2023-04-09T21:47:11;11.87;;;5.23;;
15889;SDS011;8043;49.388;12.128;2023-04-09T21:52:14;10.23;;;5.40;;
15889;SDS011;8043;49.388;12.128;2023-04-09T21:57:17;13.53;;;6.70;;
15889;SDS011;8043;49.388;12.128;2023-04-09T22:02:19;16.60;;;7.42;;
15889;SDS011;8043;49.388;12.128;2023-04-09T22:07:22;13.80;;;7.20;;
15889;SDS011;8043;49.388;12.128;2023-04-09T22:12:25;14.60;;;6.33;;
15889;SDS011;8043;49.388;12.128;2023-04-09T22:17:27;15.33;;;7.20;;
15889;SDS011;8043;49.388;12.128;2023-04-09T22:22:30;13.37;;;6.60;;
15889;SDS011;8043;49.388;12.128;2023-04-09T22:27:33;14.93;;;6.77;;
15889;SDS011;8043;49.388;12.128;2023-04-09T22:32:35;15.37;;;7.10;;
15889;SDS011;8043;49.388;12.128;2023-04-09T22:37:38;11.10;;;6.40;;
15889;SDS011;8043;49.388;12.128;2023-04-09T22:42:47;15.87;;;7.80;;
15889;SDS011;8043;49.388;12.128;2023-04-09T22:47:50;16.27;;;6.37;;
15889;SDS011;8043;49.388;12.128;2023-04-09T22:52:52;11.07;;;5.50;;
15889;SDS011;8043;49.388;12.128;2023-04-09T22:57:55;10.43;;;4.93;;
15889;SDS011;8043;49.388;12.128;2023-04-09T23:02:59;12.80;;;6.00;;
15889;SDS011;8043;49.388;12.128;2023-04-09T23:08:01;14.10;;;5.97;;
15889;SDS011;8043;49.388;12.128;2023-04-09T23:13:04;14.80;;;6.33;;
15889;SDS011;8043;49.388;12.128;2023-04-09T23:18:06;14.47;;;6.50;;
15889;SDS011;8043;49.388;12.128;2023-04-09T23:23:08;12.23;;;6.50;;
15889;SDS011;8043;49.388;12.128;2023-04-09T23:28:10;10.23;;;5.30;;
15889;SDS011;8043;49.388;12.128;2023-04-09T23:33:13;12.30;;;5.93;;
15889;SDS011;8043;49.388;12.128;2023-04-09T23:38:15;14.37;;;6.60;;
15889;SDS011;8043;49.388;12.128;2023-04-09T23:43:17;10.53;;;5.73;;
15889;SDS011;8043;49.388;12.128;2023-04-09T23:48:19;14.33;;;6.50;;
15889;SDS011;8043;49.388;12.128;2023-04-09T23:53:22;12.07;;;5.50;;
15889;SDS011;8043;49.388;12.128;2023-04-09T23:58:24;13.40;;;5.73;;
